createdAt,value
2023-03-04T00:02:13.818Z,16.73
2023-03-04T00:04:40.546Z,16.63
2023-03-04T00:07:07.184Z,14.05
2023-03-04T00:09:33.755Z,15.23
2023-03-04T00:12:00.345Z,15.70
2023-03-04T00:14:29.967Z,14.02
2023-03-04T00:16:57.241Z,15.15
2023-03-04T00:19:24.010Z,15.18
2023-03-04T00:21:50.819Z,15.70
2023-03-04T00:24:17.491Z,15.20
2023-03-04T00:26:44.327Z,13.75
2023-03-04T00:29:10.897Z,14.55
2023-03-04T00:31:37.747Z,15.20
2023-03-04T00:34:04.698Z,17.98
2023-03-04T00:36:31.365Z,15.77
2023-03-04T00:38:58.027Z,17.30
2023-03-04T00:41:24.882Z,15.65
2023-03-04T00:43:51.905Z,16.13
2023-03-04T00:46:18.591Z,16.55
2023-03-04T00:48:45.446Z,14.45
2023-03-04T00:51:12.174Z,15.05
2023-03-04T00:53:39.002Z,15.90
2023-03-04T00:56:06.248Z,16.92
2023-03-04T00:58:32.801Z,17.27
2023-03-04T01:00:59.628Z,16.98
2023-03-04T01:03:26.954Z,16.20
2023-03-04T01:05:53.752Z,17.88
2023-03-04T01:08:20.369Z,15.85
2023-03-04T01:10:48.628Z,14.50
2023-03-04T01:13:15.272Z,15.70
2023-03-04T01:15:43.663Z,13.85
2023-03-04T01:18:10.621Z,12.52
2023-03-04T01:20:37.334Z,13.95
2023-03-04T01:23:04.133Z,13.80
2023-03-04T01:25:30.794Z,14.38
2023-03-04T01:27:58.836Z,14.20
2023-03-04T01:30:25.494Z,14.10
2023-03-04T01:32:52.028Z,15.73
2023-03-04T01:35:19.016Z,13.23
2023-03-04T01:37:45.764Z,15.00
2023-03-04T01:40:13.814Z,16.98
2023-03-04T01:42:41.104Z,15.25
2023-03-04T01:45:12.957Z,13.27
2023-03-04T01:47:39.882Z,14.13
2023-03-04T01:50:16.868Z,15.27
2023-03-04T01:52:44.100Z,12.60
2023-03-04T01:55:19.644Z,13.00
2023-03-04T01:57:48.552Z,12.77
2023-03-04T02:00:32.683Z,12.43
2023-03-04T02:03:04.045Z,13.35
2023-03-04T02:05:31.258Z,12.80
2023-03-04T02:07:58.770Z,12.27
2023-03-04T02:10:26.065Z,13.80
2023-03-04T02:12:52.979Z,13.63
2023-03-04T02:15:19.979Z,13.65
2023-03-04T02:17:46.769Z,12.00
2023-03-04T02:20:22.684Z,13.02
2023-03-04T02:23:24.324Z,14.27
2023-03-04T02:26:13.859Z,13.85
2023-03-04T02:28:41.533Z,13.55
2023-03-04T02:31:25.362Z,13.23
2023-03-04T02:33:54.054Z,12.40
2023-03-04T02:36:22.038Z,12.82
2023-03-04T02:38:53.414Z,14.93
2023-03-04T02:41:25.212Z,11.88
2023-03-04T02:46:20.904Z,10.13
2023-03-04T02:48:47.515Z,12.80
2023-03-04T02:51:14.221Z,12.57
2023-03-04T02:53:41.041Z,12.15
2023-03-04T02:56:08.195Z,12.35
2023-03-04T02:58:38.369Z,10.52
2023-03-04T03:01:06.694Z,11.57
2023-03-04T03:03:33.542Z,11.52
2023-03-04T03:06:00.415Z,11.68
2023-03-04T03:08:27.090Z,10.90
2023-03-04T03:10:54.387Z,12.60
2023-03-04T03:13:22.325Z,11.23
2023-03-04T03:15:50.147Z,11.75
2023-03-04T03:18:17.397Z,11.15
2023-03-04T03:20:43.962Z,11.88
2023-03-04T03:23:10.875Z,11.80
2023-03-04T03:25:37.832Z,12.48
2023-03-04T03:28:05.558Z,11.40
2023-03-04T03:30:33.062Z,12.02
2023-03-04T03:33:00.015Z,12.25
2023-03-04T03:35:27.043Z,11.48
2023-03-04T03:37:53.742Z,10.88
2023-03-04T03:40:20.613Z,11.23
2023-03-04T03:42:47.289Z,11.75
2023-03-04T03:45:14.260Z,10.35
2023-03-04T03:47:41.250Z,10.98
2023-03-04T03:50:08.226Z,11.18
2023-03-04T03:52:35.022Z,11.18
2023-03-04T03:55:02.214Z,13.40
2023-03-04T03:57:29.909Z,12.35
2023-03-04T03:59:56.786Z,11.48
2023-03-04T04:02:23.526Z,12.10
2023-03-04T04:04:50.585Z,11.43
2023-03-04T04:07:17.771Z,10.27
2023-03-04T04:09:45.039Z,11.75
2023-03-04T04:12:14.641Z,11.45
2023-03-04T04:14:41.518Z,11.30
2023-03-04T04:17:08.355Z,12.43
2023-03-04T04:19:35.271Z,12.50
2023-03-04T04:22:02.894Z,11.43
2023-03-04T04:24:29.800Z,12.85
2023-03-04T04:26:57.337Z,11.63
2023-03-04T04:29:24.209Z,11.02
2023-03-04T04:31:50.856Z,11.82
2023-03-04T04:34:17.621Z,12.43
2023-03-04T04:36:44.767Z,11.77
2023-03-04T04:39:11.515Z,11.25
2023-03-04T04:41:41.925Z,11.68
2023-03-04T04:44:09.410Z,11.93
2023-03-04T04:46:36.693Z,10.27
2023-03-04T04:49:04.723Z,10.63
2023-03-04T04:51:31.768Z,11.35
2023-03-04T04:54:00.121Z,11.35
2023-03-04T04:56:27.519Z,9.82
2023-03-04T04:58:57.536Z,10.25
2023-03-04T05:01:25.391Z,12.20
2023-03-04T05:03:55.573Z,10.88
2023-03-04T05:06:24.106Z,10.95
2023-03-04T05:08:51.559Z,11.60
2023-03-04T05:11:19.600Z,12.27
2023-03-04T05:13:46.921Z,10.82
2023-03-04T05:16:14.562Z,11.43
2023-03-04T05:18:41.378Z,11.93
2023-03-04T05:21:08.740Z,12.13
2023-03-04T05:23:38.490Z,11.57
2023-03-04T05:26:06.572Z,10.88
2023-03-04T05:28:34.795Z,11.88
2023-03-04T05:31:01.794Z,11.25
2023-03-04T05:33:28.910Z,10.50
2023-03-04T05:35:55.676Z,10.70
2023-03-04T05:38:22.869Z,10.30
2023-03-04T05:40:49.694Z,9.90
2023-03-04T05:43:16.618Z,10.32
2023-03-04T05:45:43.338Z,10.30
2023-03-04T05:48:10.016Z,10.23
2023-03-04T05:50:36.918Z,9.38
2023-03-04T05:53:03.650Z,11.48
2023-03-04T05:55:30.220Z,11.30
2023-03-04T05:57:57.731Z,10.18
2023-03-04T06:00:25.273Z,10.57
2023-03-04T06:02:52.059Z,11.73
2023-03-04T06:05:18.925Z,11.25
2023-03-04T06:07:45.754Z,10.60
2023-03-04T06:10:14.927Z,11.02
2023-03-04T06:12:42.249Z,10.63
2023-03-04T06:15:10.631Z,10.60
2023-03-04T06:17:41.800Z,10.63
2023-03-04T06:20:11.014Z,10.38
2023-03-04T06:22:37.703Z,11.30
2023-03-04T06:25:04.706Z,12.07
2023-03-04T06:27:31.543Z,11.85
2023-03-04T06:29:58.235Z,9.90
2023-03-04T06:32:25.222Z,13.60
2023-03-04T06:34:52.215Z,11.02
2023-03-04T06:37:19.251Z,12.23
2023-03-04T06:39:46.036Z,12.10
2023-03-04T06:42:13.009Z,11.40
2023-03-04T06:44:40.108Z,12.98
2023-03-04T06:47:07.043Z,12.63
2023-03-04T06:49:33.715Z,13.13
2023-03-04T06:52:00.757Z,13.20
2023-03-04T06:54:27.547Z,12.13
2023-03-04T06:56:54.179Z,13.32
2023-03-04T06:59:21.009Z,12.60
2023-03-04T07:01:47.562Z,12.70
2023-03-04T07:04:14.748Z,13.80
2023-03-04T07:06:41.479Z,13.15
2023-03-04T07:09:08.093Z,13.77
2023-03-04T07:11:34.982Z,13.75
2023-03-04T07:14:01.592Z,13.23
2023-03-04T07:16:28.514Z,13.38
2023-03-04T07:18:55.289Z,13.55
2023-03-04T07:21:22.034Z,14.63
2023-03-04T07:23:48.575Z,14.15
2023-03-04T07:26:15.466Z,13.18
2023-03-04T07:28:43.053Z,16.50
2023-03-04T07:31:16.222Z,14.63
2023-03-04T07:33:43.110Z,14.80
2023-03-04T07:36:09.758Z,14.85
2023-03-04T07:38:36.597Z,14.98
2023-03-04T07:41:03.323Z,14.50
2023-03-04T07:43:29.886Z,14.30
2023-03-04T07:46:01.951Z,14.82
2023-03-04T07:48:28.910Z,15.15
2023-03-04T07:51:13.690Z,16.23
2023-03-04T07:53:42.156Z,14.57
2023-03-04T07:56:12.493Z,14.23
2023-03-04T07:58:39.262Z,14.02
2023-03-04T08:01:14.013Z,15.88
2023-03-04T08:03:41.216Z,16.38
2023-03-04T08:06:09.547Z,16.17
2023-03-04T08:08:37.287Z,16.15
2023-03-04T08:11:08.695Z,16.67
2023-03-04T08:13:36.212Z,15.05
2023-03-04T08:16:03.492Z,15.02
2023-03-04T08:18:30.389Z,16.10
2023-03-04T08:20:56.988Z,14.07
2023-03-04T08:23:24.452Z,16.05
2023-03-04T08:25:51.951Z,13.70
2023-03-04T08:28:18.641Z,14.40
2023-03-04T08:30:45.366Z,12.93
2023-03-04T08:33:12.067Z,14.23
2023-03-04T08:35:40.594Z,14.02
2023-03-04T08:38:07.452Z,13.25
2023-03-04T08:40:34.331Z,14.43
2023-03-04T08:43:00.989Z,13.95
2023-03-04T08:45:27.712Z,15.73
2023-03-04T08:47:54.491Z,15.40
2023-03-04T08:50:22.501Z,15.80
2023-03-04T08:52:49.582Z,15.35
2023-03-04T08:55:16.541Z,15.07
2023-03-04T08:57:43.081Z,14.95
2023-03-04T09:00:10.786Z,14.23
2023-03-04T09:02:37.286Z,16.75
2023-03-04T09:05:04.818Z,15.98
2023-03-04T09:07:31.485Z,16.20
2023-03-04T09:09:58.202Z,13.85
2023-03-04T09:12:25.025Z,14.88
2023-03-04T09:15:04.776Z,13.90
2023-03-04T09:17:36.882Z,14.07
2023-03-04T09:20:04.872Z,15.05
2023-03-04T09:22:31.785Z,14.90
2023-03-04T09:24:58.595Z,14.68
2023-03-04T09:27:25.383Z,13.88
2023-03-04T09:29:52.107Z,13.68
2023-03-04T09:32:19.056Z,14.38
2023-03-04T09:34:45.691Z,13.98
2023-03-04T09:37:12.632Z,13.80
2023-03-04T09:39:39.356Z,13.77
2023-03-04T09:42:09.242Z,14.18
2023-03-04T09:44:41.090Z,12.55
2023-03-04T09:47:12.743Z,13.15
2023-03-04T09:49:42.336Z,12.63
2023-03-04T09:52:20.934Z,13.38
2023-03-04T09:55:06.479Z,13.35
2023-03-04T09:57:42.671Z,12.45
2023-03-04T10:00:38.970Z,12.50
2023-03-04T10:03:19.673Z,13.25
2023-03-04T10:05:54.430Z,11.73
2023-03-04T10:08:46.055Z,11.90
2023-03-04T10:11:23.571Z,12.02
2023-03-04T10:14:16.528Z,13.15
2023-03-04T10:16:49.034Z,13.35
2023-03-04T10:19:18.807Z,14.10
2023-03-04T10:21:48.298Z,13.48
2023-03-04T10:24:22.484Z,13.63
2023-03-04T10:26:53.991Z,12.02
2023-03-04T10:29:24.609Z,12.90
2023-03-04T10:31:51.644Z,12.45
2023-03-04T10:34:18.804Z,12.25
2023-03-04T10:36:59.159Z,12.73
2023-03-04T10:39:39.692Z,13.05
2023-03-04T10:42:23.609Z,10.95
2023-03-04T10:44:53.500Z,11.45
2023-03-04T10:47:20.065Z,12.60
2023-03-04T10:49:57.400Z,12.07
2023-03-04T10:52:38.625Z,12.07
2023-03-04T10:55:26.063Z,12.40
2023-03-04T10:57:57.951Z,10.93
2023-03-04T11:00:35.638Z,12.90
2023-03-04T11:03:29.688Z,11.82
2023-03-04T11:06:17.036Z,10.65
2023-03-04T11:08:58.016Z,11.18
2023-03-04T11:11:25.870Z,12.02
2023-03-04T11:13:58.544Z,11.38
2023-03-04T11:16:28.469Z,11.52
2023-03-04T11:19:06.775Z,12.38
2023-03-04T11:21:40.339Z,13.20
2023-03-04T11:24:27.565Z,12.15
2023-03-04T11:27:03.841Z,12.20
2023-03-04T11:30:17.325Z,11.98
2023-03-04T11:32:47.937Z,11.38
2023-03-04T11:35:38.973Z,12.82
2023-03-04T11:38:22.285Z,12.13
2023-03-04T11:40:57.608Z,12.55
2023-03-04T11:43:37.005Z,12.02
2023-03-04T11:46:06.267Z,12.23
2023-03-04T11:48:45.095Z,12.93
2023-03-04T11:51:34.877Z,13.45
2023-03-04T11:54:37.762Z,13.00
2023-03-04T11:57:34.725Z,13.68
2023-03-04T12:00:25.667Z,12.57
2023-03-04T12:03:15.384Z,13.45
2023-03-04T12:06:07.005Z,14.68
2023-03-04T12:08:39.735Z,13.85
2023-03-04T12:11:20.812Z,13.38
2023-03-04T12:14:11.335Z,12.20
2023-03-04T12:16:50.346Z,14.27
2023-03-04T12:19:53.930Z,13.15
2023-03-04T12:22:32.795Z,13.15
2023-03-04T12:25:33.234Z,13.45
2023-03-04T12:28:08.920Z,14.00
2023-03-04T12:30:52.576Z,14.38
2023-03-04T12:33:47.360Z,12.63
2023-03-04T12:36:26.263Z,14.15
2023-03-04T12:39:00.475Z,13.38
2023-03-04T12:41:39.952Z,13.60
2023-03-04T12:44:12.391Z,14.00
2023-03-04T12:46:57.349Z,15.00
2023-03-04T12:49:42.580Z,13.35
2023-03-04T12:52:40.414Z,12.60
2023-03-04T12:55:14.216Z,13.32
2023-03-04T12:57:41.131Z,14.43
2023-03-04T13:00:40.640Z,12.93
2023-03-04T13:03:20.228Z,13.95
2023-03-04T13:06:04.894Z,15.05
2023-03-04T13:08:38.550Z,15.07
2023-03-04T13:11:28.241Z,14.13
2023-03-04T13:14:04.099Z,12.90
2023-03-04T13:16:41.961Z,13.32
2023-03-04T13:19:46.692Z,13.82
2023-03-04T13:22:40.643Z,12.52
2023-03-04T13:25:31.225Z,13.13
2023-03-04T13:28:03.912Z,13.82
2023-03-04T13:30:38.198Z,12.95
2023-03-04T13:33:11.032Z,11.65
2023-03-04T13:35:50.223Z,12.68
2023-03-04T13:38:56.911Z,13.68
2023-03-04T13:41:28.843Z,12.57
2023-03-04T13:44:00.825Z,13.10
2023-03-04T13:46:27.923Z,12.00
2023-03-04T13:48:54.445Z,12.32
2023-03-04T13:51:41.541Z,12.02
2023-03-04T13:54:21.951Z,13.23
2023-03-04T13:57:09.670Z,12.63
2023-03-04T13:59:45.208Z,11.05
2023-03-04T14:02:17.146Z,11.52
2023-03-04T14:04:46.472Z,11.90
2023-03-04T14:07:29.798Z,12.43
2023-03-04T14:10:12.956Z,11.68
2023-03-04T14:12:50.386Z,12.80
2023-03-04T14:15:27.777Z,12.40
2023-03-04T14:18:03.394Z,11.93
2023-03-04T14:20:38.253Z,11.82
2023-03-04T14:23:24.950Z,11.40
2023-03-04T14:25:51.662Z,11.18
2023-03-04T14:28:20.913Z,10.40
2023-03-04T14:30:56.479Z,11.57
2023-03-04T14:33:31.042Z,12.32
2023-03-04T14:36:01.076Z,11.65
2023-03-04T14:38:34.952Z,10.85
2023-03-04T14:41:12.732Z,11.32
2023-03-04T14:43:56.897Z,11.20
2023-03-04T14:46:29.081Z,11.75
2023-03-04T14:48:56.523Z,11.75
2023-03-04T14:51:38.910Z,11.35
2023-03-04T14:54:05.793Z,11.02
2023-03-04T14:56:35.583Z,11.43
2023-03-04T14:59:02.784Z,11.63
2023-03-04T15:01:35.583Z,9.50
2023-03-04T15:04:13.874Z,9.52
2023-03-04T15:06:54.245Z,10.82
2023-03-04T15:09:26.901Z,9.90
2023-03-04T15:12:03.792Z,9.43
2023-03-04T15:15:00.679Z,8.85
2023-03-04T15:17:38.110Z,8.27
2023-03-04T15:20:08.658Z,8.40
2023-03-04T15:22:44.939Z,9.68
2023-03-04T15:25:15.596Z,8.25
2023-03-04T15:27:44.267Z,8.60
2023-03-04T15:30:25.851Z,7.75
2023-03-04T15:35:20.878Z,8.05
2023-03-04T15:37:49.508Z,8.35
2023-03-04T15:40:31.585Z,8.30
2023-03-04T15:43:00.719Z,8.43
2023-03-04T15:45:37.066Z,7.80
2023-03-04T15:48:09.896Z,7.20
2023-03-04T15:50:39.787Z,7.40
2023-03-04T15:53:19.654Z,7.18
2023-03-04T15:55:46.981Z,6.90
2023-03-04T15:58:14.834Z,7.18
2023-03-04T16:00:41.461Z,6.90
2023-03-04T16:03:15.280Z,7.53
2023-03-04T16:05:43.330Z,6.40
2023-03-04T16:08:14.766Z,6.53
2023-03-04T16:10:43.852Z,6.72
2023-03-04T16:13:16.249Z,7.55
2023-03-04T16:15:43.316Z,7.47
2023-03-04T16:18:12.042Z,6.72
2023-03-04T16:20:40.513Z,6.35
2023-03-04T16:23:13.394Z,6.57
2023-03-04T16:25:43.698Z,6.50
2023-03-04T16:28:11.644Z,5.50
2023-03-04T16:30:38.766Z,6.60
2023-03-04T16:33:05.775Z,6.40
2023-03-04T16:35:35.735Z,7.55
2023-03-04T16:38:02.902Z,6.72
2023-03-04T16:40:31.104Z,6.28
2023-03-04T16:42:57.739Z,6.32
2023-03-04T16:45:27.072Z,7.00
2023-03-04T16:47:54.309Z,6.30
2023-03-04T16:50:27.346Z,6.65
2023-03-04T16:52:55.845Z,7.10
2023-03-04T16:55:25.365Z,7.07
2023-03-04T16:57:52.399Z,6.32
2023-03-04T17:00:20.908Z,6.90
2023-03-04T17:02:59.490Z,6.35
2023-03-04T17:05:29.748Z,6.60
2023-03-04T17:07:56.483Z,6.40
2023-03-04T17:10:23.635Z,6.45
2023-03-04T17:12:52.078Z,6.88
2023-03-04T17:15:19.151Z,6.55
2023-03-04T17:17:46.305Z,6.93
2023-03-04T17:20:18.069Z,5.93
2023-03-04T17:25:12.588Z,6.57
2023-03-04T17:27:39.464Z,6.28
2023-03-04T17:30:08.583Z,6.60
2023-03-04T17:32:36.773Z,7.10
2023-03-04T17:35:05.579Z,6.68
2023-03-04T17:37:32.235Z,6.32
2023-03-04T17:39:59.033Z,6.43
2023-03-04T17:42:25.732Z,6.50
2023-03-04T17:44:52.419Z,7.22
2023-03-04T17:47:19.172Z,6.57
2023-03-04T17:49:45.877Z,7.20
2023-03-04T17:52:12.584Z,6.80
2023-03-04T17:54:39.258Z,7.15
2023-03-04T17:57:06.184Z,6.25
2023-03-04T17:59:32.829Z,7.55
2023-03-04T18:01:59.537Z,7.65
2023-03-04T18:04:26.364Z,7.90
2023-03-04T18:06:53.214Z,7.15
2023-03-04T18:09:19.859Z,7.78
2023-03-04T18:11:46.607Z,7.15
2023-03-04T18:14:18.602Z,7.68
2023-03-04T18:16:45.431Z,7.22
2023-03-04T18:19:11.988Z,7.50
2023-03-04T18:21:38.938Z,7.78
2023-03-04T18:24:05.886Z,8.43
2023-03-04T18:26:32.744Z,8.20
2023-03-04T18:28:59.296Z,7.18
2023-03-04T18:31:31.003Z,7.80
2023-03-04T18:34:00.891Z,7.55
2023-03-04T18:36:27.709Z,8.13
2023-03-04T18:38:55.100Z,6.95
2023-03-04T18:41:21.804Z,7.72
2023-03-04T18:43:48.533Z,8.07
2023-03-04T18:46:26.786Z,9.05
2023-03-04T18:48:55.894Z,6.93
2023-03-04T18:51:22.494Z,8.07
2023-03-04T18:53:49.355Z,7.20
2023-03-04T18:56:22.027Z,8.38
2023-03-04T18:58:50.659Z,6.95
2023-03-04T19:01:20.891Z,8.63
2023-03-04T19:03:48.274Z,7.22
2023-03-04T19:06:15.441Z,8.93
2023-03-04T19:08:42.050Z,8.18
2023-03-04T19:11:08.835Z,8.18
2023-03-04T19:13:35.528Z,7.78
2023-03-04T19:16:02.358Z,8.52
2023-03-04T19:18:29.516Z,7.97
2023-03-04T19:20:59.596Z,8.30
2023-03-04T19:23:27.266Z,7.78
2023-03-04T19:25:53.851Z,7.95
2023-03-04T19:28:20.817Z,8.30
2023-03-04T19:30:47.508Z,7.57
2023-03-04T19:33:14.248Z,7.70
2023-03-04T19:35:43.015Z,7.78
2023-03-04T19:38:09.639Z,8.05
2023-03-04T19:40:40.485Z,8.52
2023-03-04T19:43:07.758Z,7.80
2023-03-04T19:45:34.790Z,8.23
2023-03-04T19:48:03.035Z,7.75
2023-03-04T19:50:31.357Z,7.47
2023-03-04T19:52:58.349Z,8.65
2023-03-04T19:55:25.199Z,8.30
2023-03-04T19:57:51.957Z,8.57
2023-03-04T20:00:18.927Z,7.97
2023-03-04T20:02:47.926Z,8.73
2023-03-04T20:05:15.055Z,7.68
2023-03-04T20:07:41.806Z,7.75
2023-03-04T20:10:09.305Z,8.07
2023-03-04T20:12:36.318Z,7.65
2023-03-04T20:15:06.012Z,8.25
2023-03-04T20:17:32.692Z,8.50
2023-03-04T20:19:59.240Z,7.80
2023-03-04T20:22:26.151Z,7.75
2023-03-04T20:24:54.806Z,7.32
2023-03-04T20:27:21.533Z,8.27
2023-03-04T20:29:49.216Z,7.90
2023-03-04T20:32:15.925Z,8.02
2023-03-04T20:34:42.704Z,9.20
2023-03-04T20:37:09.417Z,7.82
2023-03-04T20:39:36.347Z,9.10
2023-03-04T20:42:03.766Z,7.47
2023-03-04T20:44:30.420Z,8.63
2023-03-04T20:46:57.641Z,7.90
2023-03-04T20:49:27.187Z,7.95
2023-03-04T20:51:56.007Z,8.57
2023-03-04T20:54:22.712Z,8.30
2023-03-04T20:56:49.724Z,8.50
2023-03-04T20:59:17.238Z,7.88
2023-03-04T21:01:45.395Z,8.38
2023-03-04T21:04:12.175Z,8.60
2023-03-04T21:06:40.672Z,8.50
2023-03-04T21:09:11.747Z,9.02
2023-03-04T21:11:42.008Z,7.93
2023-03-04T21:14:19.592Z,8.18
2023-03-04T21:16:46.929Z,8.85
2023-03-04T21:19:16.781Z,8.65
2023-03-04T21:21:44.361Z,7.90
2023-03-04T21:24:14.519Z,7.95
2023-03-04T21:26:45.199Z,7.97
2023-03-04T21:29:13.106Z,9.23
2023-03-04T21:31:43.548Z,8.57
2023-03-04T21:34:25.060Z,9.32
2023-03-04T21:36:51.744Z,9.23
2023-03-04T21:39:24.149Z,8.95
2023-03-04T21:41:51.875Z,8.95
2023-03-04T21:44:27.972Z,8.30
2023-03-04T21:46:56.786Z,8.98
2023-03-04T21:49:23.433Z,9.35
2023-03-04T21:51:50.115Z,10.35
2023-03-04T21:54:16.762Z,9.77
2023-03-04T21:56:43.342Z,8.73
2023-03-04T21:59:12.953Z,10.35
2023-03-04T22:01:40.564Z,9.10
2023-03-04T22:04:07.542Z,8.63
2023-03-04T22:06:34.432Z,8.63
2023-03-04T22:09:02.864Z,7.95
2023-03-04T22:11:30.478Z,9.05
2023-03-04T22:13:59.903Z,10.30
2023-03-04T22:16:27.669Z,10.85
2023-03-04T22:18:54.966Z,10.10
2023-03-04T22:21:22.035Z,10.10
2023-03-04T22:23:49.342Z,9.65
2023-03-04T22:26:18.005Z,10.18
2023-03-04T22:28:44.807Z,8.48
2023-03-04T22:31:20.584Z,10.20
2023-03-04T22:33:47.556Z,8.18
2023-03-04T22:36:14.565Z,10.55
2023-03-04T22:38:41.522Z,8.90
2023-03-04T22:41:19.024Z,11.43
2023-03-04T22:43:46.656Z,10.52
2023-03-04T22:46:22.560Z,9.85
2023-03-04T22:48:50.978Z,9.57
2023-03-04T22:51:18.500Z,11.35
2023-03-04T22:53:45.265Z,10.63
2023-03-04T22:56:13.950Z,10.85
2023-03-04T22:58:41.730Z,10.15
2023-03-04T23:01:09.380Z,9.35
2023-03-04T23:03:36.860Z,9.63
2023-03-04T23:06:30.442Z,9.20
2023-03-04T23:08:58.935Z,9.73
2023-03-04T23:11:31.353Z,9.45
2023-03-04T23:14:02.234Z,9.88
2023-03-04T23:16:29.100Z,10.38
2023-03-04T23:18:58.193Z,9.40
2023-03-04T23:21:28.272Z,10.48
2023-03-04T23:23:54.979Z,9.57
2023-03-04T23:26:27.729Z,9.80
2023-03-04T23:28:57.243Z,10.15
2023-03-04T23:31:25.521Z,10.48
2023-03-04T23:33:57.054Z,9.43
2023-03-04T23:36:26.894Z,9.95
2023-03-04T23:38:54.071Z,10.38
2023-03-04T23:41:23.864Z,10.45
2023-03-04T23:43:53.834Z,9.45
2023-03-04T23:46:21.030Z,9.60
2023-03-04T23:48:47.934Z,11.25
2023-03-04T23:51:17.159Z,9.00
2023-03-04T23:53:44.526Z,10.07
2023-03-04T23:56:16.550Z,10.07
2023-03-04T23:58:44.470Z,10.02
